sensor_id;sensor_type;location;lat;lon;timestamp;temperature;humidity
29255;DHT22;16277;48.890;2.306;2022-12-07T04:43:23;8.70;99.90
29255;DHT22;16277;48.890;2.306;2022-12-07T04:58:28;8.10;99.90
29255;DHT22;16277;48.890;2.306;2022-12-07T05:13:32;8.40;99.90
29255;DHT22;16277;48.890;2.306;2022-12-07T05:28:37;9.20;99.90
29255;DHT22;16277;48.890;2.306;2022-12-07T05:43:42;8.70;99.90
29255;DHT22;16277;48.890;2.306;2022-12-07T05:58:46;9.10;99.90
29255;DHT22;16277;48.890;2.306;2022-12-07T06:14:08;9.00;99.90
29255;DHT22;16277;48.890;2.306;2022-12-07T06:29:13;9.20;99.90
29255;DHT22;16277;48.890;2.306;2022-12-07T06:44:18;8.80;99.90
29255;DHT22;16277;48.890;2.306;2022-12-07T06:59:23;9.00;99.90
29255;DHT22;16277;48.890;2.306;2022-12-07T07:14:27;9.30;99.90
29255;DHT22;16277;48.890;2.306;2022-12-07T07:29:32;9.00;99.90
29255;DHT22;16277;48.890;2.306;2022-12-07T07:44:36;9.00;99.90
29255;DHT22;16277;48.890;2.306;2022-12-07T07:59:41;9.50;99.90
29255;DHT22;16277;48.890;2.306;2022-12-07T08:14:45;9.80;99.90
29255;DHT22;16277;48.890;2.306;2022-12-07T08:29:50;9.40;99.90
29255;DHT22;16277;48.890;2.306;2022-12-07T08:44:54;8.80;99.90
29255;DHT22;16277;48.890;2.306;2022-12-07T08:59:59;8.30;99.90
29255;DHT22;16277;48.890;2.306;2022-12-07T09:15:05;8.80;99.90
29255;DHT22;16277;48.890;2.306;2022-12-07T09:30:10;9.20;99.90
29255;DHT22;16277;48.890;2.306;2022-12-07T09:45:18;8.90;99.90
29255;DHT22;16277;48.890;2.306;2022-12-07T10:00:23;8.90;99.90
29255;DHT22;16277;48.890;2.306;2022-12-07T10:15:46;9.10;99.90
29255;DHT22;16277;48.890;2.306;2022-12-07T10:30:54;9.90;99.90
29255;DHT22;16277;48.890;2.306;2022-12-07T11:01:51;10.00;99.90
29255;DHT22;16277;48.890;2.306;2022-12-07T11:17:02;10.60;99.90
29255;DHT22;16277;48.890;2.306;2022-12-07T11:32:15;10.60;99.90
29255;DHT22;16277;48.890;2.306;2022-12-07T11:47:27;10.50;99.90
29255;DHT22;16277;48.890;2.306;2022-12-07T12:02:39;9.30;99.90
29255;DHT22;16277;48.890;2.306;2022-12-07T12:18:25;10.90;99.90
29255;DHT22;16277;48.890;2.306;2022-12-07T12:33:32;10.50;99.90
29255;DHT22;16277;48.890;2.306;2022-12-07T12:48:37;10.90;99.90
29255;DHT22;16277;48.890;2.306;2022-12-07T13:03:52;11.40;99.90
29255;DHT22;16277;48.890;2.306;2022-12-07T13:18:57;11.40;99.90
29255;DHT22;16277;48.890;2.306;2022-12-07T13:34:02;10.80;99.90
29255;DHT22;16277;48.890;2.306;2022-12-07T13:49:17;11.20;99.90
29255;DHT22;16277;48.890;2.306;2022-12-07T14:04:32;11.30;99.90
29255;DHT22;16277;48.890;2.306;2022-12-07T14:19:49;11.30;99.90
29255;DHT22;16277;48.890;2.306;2022-12-07T14:34:56;11.70;99.90
29255;DHT22;16277;48.890;2.306;2022-12-07T14:50:00;11.80;99.90
29255;DHT22;16277;48.890;2.306;2022-12-07T15:05:09;11.80;99.90
29255;DHT22;16277;48.890;2.306;2022-12-07T15:20:18;11.50;99.90
29255;DHT22;16277;48.890;2.306;2022-12-07T15:35:23;11.50;99.90
29255;DHT22;16277;48.890;2.306;2022-12-07T15:50:27;11.60;99.90
29255;DHT22;16277;48.890;2.306;2022-12-07T16:05:32;11.20;99.90
29255;DHT22;16277;48.890;2.306;2022-12-07T16:20:37;10.50;99.90
29255;DHT22;16277;48.890;2.306;2022-12-07T16:35:42;11.20;99.90
29255;DHT22;16277;48.890;2.306;2022-12-07T16:50:47;10.90;99.90
29255;DHT22;16277;48.890;2.306;2022-12-07T17:05:53;11.00;99.90
29255;DHT22;16277;48.890;2.306;2022-12-07T17:21:04;11.00;99.90
29255;DHT22;16277;48.890;2.306;2022-12-07T17:36:14;10.50;99.90
29255;DHT22;16277;48.890;2.306;2022-12-07T17:51:19;10.50;99.90
29255;DHT22;16277;48.890;2.306;2022-12-07T18:06:41;10.40;99.90
29255;DHT22;16277;48.890;2.306;2022-12-07T18:21:54;10.80;99.90
29255;DHT22;16277;48.890;2.306;2022-12-07T18:36:58;10.70;99.90
29255;DHT22;16277;48.890;2.306;2022-12-07T18:52:03;10.60;99.90
29255;DHT22;16277;48.890;2.306;2022-12-07T19:07:07;11.30;99.90
29255;DHT22;16277;48.890;2.306;2022-12-07T19:22:14;10.80;99.90
29255;DHT22;16277;48.890;2.306;2022-12-07T19:37:19;10.70;99.90
29255;DHT22;16277;48.890;2.306;2022-12-07T19:52:23;10.20;99.90
29255;DHT22;16277;48.890;2.306;2022-12-07T20:07:28;10.70;99.90
29255;DHT22;16277;48.890;2.306;2022-12-07T20:22:34;11.10;99.90
29255;DHT22;16277;48.890;2.306;2022-12-07T20:37:38;11.30;99.90
29255;DHT22;16277;48.890;2.306;2022-12-07T20:52:42;11.00;99.90
29255;DHT22;16277;48.890;2.306;2022-12-07T21:07:47;10.60;99.90
